Time;durP1;ratioP1;P1;durP2;ratioP2;P2;SDS_P1;SDS_P2;PMS_P1;PMS_P2;Temp;Humidity;BMP_temperature;BMP_pressure;BME280_temperature;BME280_humidity;BME280_pressure;Samples;Min_cycle;Max_cycle;Signal;HPM_P1;HPM_P2
2022/09/05 00:02:33;;;;;;;5.10;2.17;;;;;;;10.48;100.00;100442.12;1702968;80;21057;-51
2022/09/05 00:05:28;;;;;;;4.75;2.12;;;;;;;10.51;100.00;100442.91;1739109;80;21582;-50
2022/09/05 00:08:20;;;;;;;3.00;2.00;;;;;;;10.52;100.00;100434.36;1741188;80;21053;-50
2022/09/05 00:11:12;;;;;;;3.98;1.55;;;;;;;10.55;100.00;100431.07;1732852;80;21043;-50
2022/09/05 00:13:44;;;;;;;3.47;1.60;;;;;;;10.59;100.00;100430.03;1738207;80;22529;-51
2022/09/05 00:16:55;;;;;;;6.03;1.77;;;;;;;10.63;100.00;100415.51;1737573;80;21125;-52
2022/09/05 00:20:00;;;;;;;4.53;1.62;;;;;;;10.68;100.00;100412.66;1667950;84;21089;-50
2022/09/05 00:22:44;;;;;;;3.60;1.55;;;;;;;10.71;100.00;100408.52;1572629;89;21168;-50
2022/09/05 00:26:00;;;;;;;2.65;1.62;;;;;;;10.71;100.00;100409.86;1695623;80;21393;-49
2022/09/05 00:28:44;;;;;;;4.90;2.02;;;;;;;10.70;100.00;100399.14;1674899;84;21099;-49
2022/09/05 00:34:22;;;;;;;5.07;2.00;;;;;;;10.80;100.00;100403.24;1832949;76;22654;-51
2022/09/05 00:36:53;;;;;;;3.27;1.90;;;;;;;10.79;100.00;100400.13;1802130;77;21039;-49
2022/09/05 00:39:33;;;;;;;5.15;1.80;;;;;;;10.79;100.00;100395.63;1803280;77;22273;-50
2022/09/05 00:42:11;;;;;;;5.80;1.82;;;;;;;10.77;100.00;100391.23;1801291;77;20965;-50
2022/09/05 00:44:52;;;;;;;4.30;1.50;;;;;;;10.76;100.00;100390.35;1805655;77;21466;-50
2022/09/05 00:47:54;;;;;;;3.17;1.65;;;;;;;10.77;100.00;100392.58;1802056;77;20938;-50
2022/09/05 00:50:29;;;;;;;2.65;1.77;;;;;;;10.77;100.00;100391.23;1801401;77;21594;-50
2022/09/05 00:53:06;;;;;;;8.68;1.60;;;;;;;10.77;100.00;100384.50;1802915;77;22216;-50
2022/09/05 00:56:08;;;;;;;2.02;1.55;;;;;;;10.78;100.00;100383.09;1800903;77;20952;-50
2022/09/05 00:58:56;;;;;;;2.77;1.80;;;;;;;10.78;100.00;100376.36;1796078;77;20965;-49
2022/09/05 01:01:33;;;;;;;3.65;1.47;;;;;;;10.79;100.00;100371.39;1768667;77;21390;-49
2022/09/05 01:04:11;;;;;;;5.87;1.05;;;;;;;10.82;100.00;100375.75;1805408;77;21488;-49
2022/09/05 01:07:14;;;;;;;1.95;1.07;;;;;;;10.82;100.00;100369.02;1801858;77;21716;-50
2022/09/05 01:09:46;;;;;;;1.45;0.98;;;;;;;10.83;100.00;100369.44;1801303;77;21092;-49
2022/09/05 01:12:44;;;;;;;3.15;1.00;;;;;;;10.86;100.00;100366.17;1804711;77;21589;-51
2022/09/05 01:15:42;;;;;;;1.95;1.00;;;;;;;10.90;100.00;100361.52;1804235;77;21035;-50
2022/09/05 01:18:40;;;;;;;2.12;1.00;;;;;;;10.94;100.00;100361.82;1797268;77;21069;-50
2022/09/05 01:21:40;;;;;;;3.77;1.12;;;;;;;10.98;100.00;100363.43;1795407;77;21302;-50
2022/09/05 01:24:28;;;;;;;2.60;1.17;;;;;;;11.03;100.00;100364.14;1800286;77;21065;-50
2022/09/05 01:27:18;;;;;;;1.37;1.10;;;;;;;11.01;100.00;100361.98;1803753;77;21535;-50
2022/09/05 01:29:52;;;;;;;3.20;1.55;;;;;;;10.99;100.00;100363.38;1798163;77;21029;-50
2022/09/05 01:32:34;;;;;;;2.75;1.20;;;;;;;10.96;100.00;100366.22;1776822;77;21045;-51
2022/09/05 01:35:40;;;;;;;3.00;1.42;;;;;;;10.96;100.00;100365.34;1797931;77;21084;-53
2022/09/05 01:38:33;;;;;;;3.22;1.42;;;;;;;10.93;100.00;100365.45;1794824;77;21100;-52
2022/09/05 01:41:23;;;;;;;3.85;1.15;;;;;;;10.87;100.00;100363.89;1803300;77;21007;-52
2022/09/05 01:44:12;;;;;;;2.02;1.12;;;;;;;10.81;100.00;100362.76;1800401;77;21302;-52
2022/09/05 01:47:04;;;;;;;2.10;1.30;;;;;;;10.77;100.00;100364.30;1801575;77;21488;-52
2022/09/05 01:49:42;;;;;;;4.30;1.30;;;;;;;10.74;100.00;100365.76;1799075;77;21160;-52
2022/09/05 01:52:51;;;;;;;3.92;1.40;;;;;;;10.70;100.00;100360.10;1799590;77;21107;-53
2022/09/05 01:55:55;;;;;;;1.50;0.95;;;;;;;10.67;100.00;100357.52;1720409;81;21072;-53
2022/09/05 01:58:45;;;;;;;1.67;1.12;;;;;;;10.65;100.00;100362.08;1712217;81;21206;-53
2022/09/05 02:01:23;;;;;;;2.30;1.20;;;;;;;10.65;100.00;100356.22;1774338;77;21030;-53
2022/09/05 02:04:22;;;;;;;3.35;1.10;;;;;;;10.65;100.00;100356.22;1797532;77;21182;-53
2022/09/05 02:07:37;;;;;;;2.37;1.25;;;;;;;10.65;100.00;100349.95;1703635;82;20979;-53
2022/09/05 02:10:22;;;;;;;1.40;0.85;;;;;;;10.59;100.00;100350.62;1706404;82;21013;-53
2022/09/05 02:13:03;;;;;;;1.70;1.10;;;;;;;10.55;100.00;100350.31;1785803;77;20934;-52
2022/09/05 02:15:46;;;;;;;4.50;1.30;;;;;;;10.56;100.00;100353.42;1772910;77;21429;-54
2022/09/05 02:18:29;;;;;;;2.83;1.00;;;;;;;10.56;100.00;100345.34;1793100;77;21630;-53
2022/09/05 02:20:59;;;;;;;2.02;1.00;;;;;;;10.57;100.00;100352.48;1799320;77;21378;-53
2022/09/05 02:23:49;;;;;;;1.70;0.80;;;;;;;10.57;100.00;100348.45;1802002;77;20937;-53
2022/09/05 02:26:23;;;;;;;2.30;1.10;;;;;;;10.56;100.00;100352.54;1795084;77;20957;-52
2022/09/05 02:29:21;;;;;;;3.75;1.07;;;;;;;10.49;100.00;100349.22;1793756;77;21025;-53
2022/09/05 02:31:51;;;;;;;2.25;1.00;;;;;;;10.46;100.00;100362.78;1796555;77;21311;-52
2022/09/05 02:34:41;;;;;;;4.45;1.00;;;;;;;10.43;100.00;100356.19;1799086;77;21488;-53
2022/09/05 02:37:31;;;;;;;2.27;1.00;;;;;;;10.46;100.00;100353.36;1802382;77;21274;-52
2022/09/05 02:40:18;;;;;;;1.72;0.90;;;;;;;10.51;100.00;100343.31;1789240;77;21032;-52
2022/09/05 02:43:13;;;;;;;1.40;0.90;;;;;;;10.56;100.00;100344.00;1798368;77;21080;-52
2022/09/05 02:45:45;;;;;;;4.95;1.10;;;;;;;10.61;100.00;100358.18;1795376;77;21486;-53
2022/09/05 02:48:51;;;;;;;2.27;1.00;;;;;;;10.61;100.00;100350.56;1785847;77;21105;-53
2022/09/05 02:51:34;;;;;;;2.80;1.02;;;;;;;10.58;100.00;100340.78;1800803;77;21057;-52
2022/09/05 02:54:08;;;;;;;1.55;0.85;;;;;;;10.58;100.00;100348.86;1799866;77;21017;-52
2022/09/05 02:57:17;;;;;;;4.20;1.10;;;;;;;10.56;100.00;100352.54;1805321;77;21483;-52
2022/09/05 03:00:13;;;;;;;2.95;1.30;;;;;;;10.53;100.00;100349.52;1795905;77;21152;-53
2022/09/05 03:02:52;;;;;;;3.10;1.60;;;;;;;10.55;100.00;100353.47;1800022;77;21052;-52
2022/09/05 03:05:42;;;;;;;2.10;0.90;;;;;;;10.57;100.00;100356.98;1789187;77;21021;-52
2022/09/05 03:08:42;;;;;;;2.37;1.07;;;;;;;10.57;100.00;100348.45;1776875;79;21048;-52
2022/09/05 03:11:44;;;;;;;4.05;0.88;;;;;;;10.60;100.00;100351.50;1729191;77;21051;-51
2022/09/05 03:14:30;;;;;;;4.60;0.93;;;;;;;10.63;100.00;100353.20;1791703;77;21857;-53
2022/09/05 03:17:39;;;;;;;1.47;1.00;;;;;;;10.66;100.00;100347.68;1805922;77;21088;-53
2022/09/05 03:20:16;;;;;;;2.20;1.15;;;;;;;10.72;100.00;100346.96;1806630;77;21071;-53
2022/09/05 03:23:14;;;;;;;3.02;1.05;;;;;;;10.78;100.00;100346.75;1793072;77;21076;-52
2022/09/05 03:26:20;;;;;;;3.70;1.15;;;;;;;10.83;100.00;100347.42;1798420;77;21076;-53
2022/09/05 03:29:24;;;;;;;;;;;;;;;10.89;100.00;100351.68;1795942;77;21081;-53
2022/09/05 03:32:14;;;;;;;2.95;1.10;;;;;;;10.94;100.00;100353.27;1796527;77;20195;-52
2022/09/05 03:35:13;;;;;;;3.10;1.35;;;;;;;10.96;100.00;100363.52;1802849;77;21483;-52
2022/09/05 03:38:11;;;;;;;2.47;1.10;;;;;;;10.97;100.00;100361.20;1800513;77;22427;-52
2022/09/05 03:41:09;;;;;;;1.60;1.10;;;;;;;10.98;100.00;100356.23;1792446;77;21087;-52
2022/09/05 03:44:01;;;;;;;2.50;1.60;;;;;;;11.01;100.00;100357.94;1781451;77;21131;-52
2022/09/05 03:46:54;;;;;;;6.08;1.47;;;;;;;11.03;100.00;100359.23;1795692;77;21619;-52
2022/09/05 03:49:47;;;;;;;4.20;1.82;;;;;;;11.01;100.00;100359.28;1806564;77;21010;-52
2022/09/05 03:52:34;;;;;;;2.60;1.55;;;;;;;11.00;100.00;100362.44;1758845;79;21807;-52
2022/09/05 03:55:16;;;;;;;3.52;1.85;;;;;;;11.00;100.00;100361.56;1801564;77;21030;-52
2022/09/05 03:58:24;;;;;;;4.58;1.82;;;;;;;11.01;100.00;100353.89;1800483;77;21915;-52
2022/09/05 04:01:17;;;;;;;6.12;3.92;;;;;;;11.01;100.00;100360.62;1793920;77;21077;-52
2022/09/05 04:03:51;;;;;;;4.25;3.27;;;;;;;11.00;100.00;100358.87;1801358;77;21048;-51
2022/09/05 04:06:28;;;;;;;3.87;2.00;;;;;;;10.99;100.00;100356.64;1774345;77;21093;-52
2022/09/05 04:09:40;;;;;;;3.08;2.42;;;;;;;11.01;100.00;100355.23;1805731;77;21464;-52
2022/09/05 04:12:18;;;;;;;3.02;2.42;;;;;;;11.03;100.00;100355.19;1797650;77;21091;-52
2022/09/05 04:15:23;;;;;;;3.45;2.05;;;;;;;11.05;100.00;100354.19;1796898;77;20973;-55
2022/09/05 04:17:55;;;;;;;4.35;2.08;;;;;;;11.06;100.00;100351.88;1808319;77;22425;-54
2022/09/05 04:20:42;;;;;;;3.27;2.02;;;;;;;11.07;100.00;100345.55;1795602;77;21088;-54
2022/09/05 04:23:29;;;;;;;3.92;2.10;;;;;;;11.10;100.00;100347.25;1801778;77;21044;-54
2022/09/05 04:26:20;;;;;;;4.05;1.82;;;;;;;11.13;100.00;100353.41;1806819;77;22392;-53
2022/09/05 04:29:27;;;;;;;4.45;2.08;;;;;;;11.17;100.00;100350.98;1805777;77;21108;-55
2022/09/05 04:32:17;;;;;;;5.55;1.70;;;;;;;11.20;100.00;100352.21;1741924;80;21596;-54
2022/09/05 04:35:13;;;;;;;5.08;1.70;;;;;;;11.28;100.00;100354.59;1703898;79;21034;-54
2022/09/05 04:37:59;;;;;;;5.60;1.95;;;;;;;11.35;100.00;100357.42;1742136;80;21462;-54
2022/09/05 04:40:40;;;;;;;7.05;2.62;;;;;;;11.42;100.00;100360.27;1751859;79;21835;-53
2022/09/05 04:43:21;;;;;;;6.87;3.08;;;;;;;11.50;100.00;100359.47;1751662;79;21230;-54
2022/09/05 04:45:52;;;;;;;6.92;2.62;;;;;;;11.59;100.00;100351.46;1755585;79;21514;-54
2022/09/05 04:48:30;;;;;;;13.60;3.42;;;;;;;11.65;100.00;100343.13;1741939;80;22524;-52
2022/09/05 04:51:07;;;;;;;5.62;2.62;;;;;;;11.72;100.00;100350.01;1747808;80;21055;-53
2022/09/05 04:53:40;;;;;;;6.60;3.30;;;;;;;11.75;100.00;100339.98;1749996;80;22205;-53
2022/09/05 04:56:13;;;;;;;9.38;2.62;;;;;;;11.82;100.00;100346.47;1754886;80;21043;-54
2022/09/05 04:58:45;;;;;;;9.40;3.27;;;;;;;11.87;100.00;100343.09;1750159;80;21071;-53
2022/09/05 05:01:25;;;;;;;5.40;2.35;;;;;;;11.92;100.00;100341.93;1746509;80;20977;-54
2022/09/05 05:03:52;;;;;;;7.08;2.40;;;;;;;11.98;100.00;100348.42;1761431;78;21475;-53
2022/09/05 05:06:39;;;;;;;6.80;3.15;;;;;;;12.04;100.00;100348.61;1755056;78;21078;-53
2022/09/05 05:09:29;;;;;;;9.33;2.70;;;;;;;12.08;100.00;100339.41;1769227;78;20890;-53
2022/09/05 05:12:22;;;;;;;6.15;2.70;;;;;;;12.13;100.00;100343.69;1742732;80;20926;-52
2022/09/05 05:15:00;;;;;;;10.68;2.22;;;;;;;12.20;100.00;100343.39;1750592;79;20917;-52
2022/09/05 05:17:35;;;;;;;3.25;2.02;;;;;;;12.26;100.00;100339.94;1752738;79;20980;-52
2022/09/05 05:20:24;;;;;;;7.70;1.70;;;;;;;12.32;100.00;100340.15;1752733;79;21145;-52
2022/09/05 05:23:03;;;;;;;7.53;2.72;;;;;;;12.39;100.00;100341.14;1750366;80;21108;-53
2022/09/05 05:25:31;;;;;;;2.85;1.80;;;;;;;12.43;100.00;100330.59;1744218;80;20993;-52
2022/09/05 05:28:09;;;;;;;5.30;2.22;;;;;;;12.51;100.00;100338.33;1752886;79;20985;-52
2022/09/05 05:30:35;;;;;;;7.85;2.45;;;;;;;12.56;100.00;100341.70;1756873;79;20921;-55
2022/09/05 05:33:13;;;;;;;6.58;1.67;;;;;;;12.63;100.00;100343.16;1753091;79;21459;-56
2022/09/05 05:35:39;;;;;;;4.45;1.62;;;;;;;12.69;100.00;100342.86;1762372;78;21036;-55
2022/09/05 05:38:35;;;;;;;4.28;1.40;;;;;;;12.75;100.00;100337.66;1747713;79;21380;-55
2022/09/05 05:41:34;;;;;;;5.80;1.52;;;;;;;12.80;100.00;100339.66;1741205;79;20898;-56
2022/09/05 05:44:00;;;;;;;4.87;1.45;;;;;;;12.88;100.00;100341.04;1737989;79;21121;-55
2022/09/05 05:46:35;;;;;;;3.65;1.52;;;;;;;12.95;100.00;100340.73;1722088;79;21225;-55
2022/09/05 05:49:30;;;;;;;6.08;1.40;;;;;;;12.99;100.00;100342.35;1740707;79;21028;-53
2022/09/05 05:52:11;;;;;;;1.90;1.50;;;;;;;13.05;100.00;100346.97;1743767;79;21080;-52
2022/09/05 05:54:52;;;;;;;3.60;1.15;;;;;;;13.10;100.00;100344.91;1737070;79;21088;-53
2022/09/05 05:57:35;;;;;;;4.50;1.10;;;;;;;13.14;100.00;100343.86;1744236;79;21112;-53
2022/09/05 06:00:09;;;;;;;5.17;1.20;;;;;;;13.22;100.00;100350.23;1743051;80;21729;-53
2022/09/05 06:05:05;;;;;;;2.57;1.20;;;;;;;13.32;100.00;100343.42;1761350;79;22714;-53
2022/09/05 06:08:11;;;;;;;5.40;1.45;;;;;;;13.31;100.00;100353.83;1731956;80;21074;-53
2022/09/05 06:11:15;;;;;;;5.25;1.10;;;;;;;13.35;100.00;100359.97;1740544;80;21206;-52
2022/09/05 06:14:06;;;;;;;;;;;;;;;13.37;100.00;100358.05;1741567;80;21638;-53
2022/09/05 06:16:54;;;;;;;2.72;1.30;;;;;;;13.42;100.00;100351.47;1740986;80;20562;-53
2022/09/05 06:20:00;;;;;;;1.27;1.00;;;;;;;13.49;100.00;100361.50;1736409;81;21138;-52
2022/09/05 06:22:39;;;;;;;5.60;1.10;;;;;;;13.58;100.00;100359.20;1738792;80;20950;-53
2022/09/05 06:25:32;;;;;;;2.92;1.47;;;;;;;13.75;100.00;100361.52;1739622;81;21119;-53
2022/09/05 06:28:07;;;;;;;7.60;1.87;;;;;;;13.90;100.00;100360.24;1740540;80;21430;-53
2022/09/05 06:31:00;;;;;;;;;;;;;;;14.08;100.00;100368.35;1742060;80;20997;-53
2022/09/05 06:33:50;;;;;;;5.00;1.47;;;;;;;14.24;100.00;100358.45;1741023;80;20978;-53
2022/09/05 06:37:09;;;;;;;2.98;1.20;;;;;;;14.57;100.00;100366.61;1734004;81;21089;-53
2022/09/05 06:40:05;;;;;;;3.62;1.40;;;;;;;14.57;100.00;100366.61;1738654;80;20965;-52
2022/09/05 06:43:14;;;;;;;4.20;1.87;;;;;;;14.67;100.00;100374.64;1711059;81;21132;-53
2022/09/05 06:45:59;;;;;;;5.60;1.45;;;;;;;14.73;100.00;100383.77;1738876;80;21548;-53
2022/09/05 06:48:34;;;;;;;4.33;1.72;;;;;;;14.78;100.00;100384.41;1739120;80;21025;-52
2022/09/05 06:51:28;;;;;;;4.40;2.00;;;;;;;14.84;100.00;100394.91;1738635;81;21092;-49
2022/09/05 06:54:36;;;;;;;5.90;2.10;;;;;;;14.85;100.00;100387.17;1738406;80;21107;-52
2022/09/05 06:57:11;;;;;;;7.22;2.65;;;;;;;14.90;100.00;100392.32;1734402;80;21104;-49
2022/09/05 07:00:07;;;;;;;4.30;1.72;;;;;;;14.90;100.00;100383.71;1711128;82;21083;-49
2022/09/05 07:03:22;;;;;;;3.47;2.22;;;;;;;14.91;100.00;100396.78;1661843;82;21176;-49
2022/09/05 07:06:03;;;;;;;4.15;2.87;;;;;;;14.90;100.00;100398.62;1696259;82;21350;-53
2022/09/05 07:08:52;;;;;;;9.58;4.83;;;;;;;14.91;100.00;100398.14;1693487;82;21570;-53
2022/09/05 07:11:22;;;;;;;6.80;2.87;;;;;;;14.87;100.00;100397.94;1692434;82;21113;-48
2022/09/05 07:14:01;;;;;;;6.75;2.33;;;;;;;14.84;100.00;100404.39;1691399;82;21141;-50
2022/09/05 07:16:46;;;;;;;7.03;3.70;;;;;;;14.86;100.00;100400.24;1686222;82;21391;-48
2022/09/05 07:19:32;;;;;;;4.55;2.98;;;;;;;14.87;100.00;100406.94;1690950;82;21114;-50
2022/09/05 07:22:17;;;;;;;9.63;4.00;;;;;;;14.88;100.00;100407.81;1692564;82;21135;-50
2022/09/05 07:24:45;;;;;;;5.35;3.27;;;;;;;14.89;100.00;100413.13;1704422;82;29541;-52
2022/09/05 07:27:36;;;;;;;7.08;3.98;;;;;;;14.93;100.00;100418.79;1695221;82;21467;-47
2022/09/05 07:30:03;;;;;;;9.03;5.37;;;;;;;14.99;100.00;100426.57;1694411;82;21121;-48
2022/09/05 07:32:38;;;;;;;11.88;5.40;;;;;;;15.09;100.00;100429.17;1698498;82;21155;-49
2022/09/05 07:35:06;;;;;;;24.75;14.73;;;;;;;15.22;100.00;100435.27;1694953;83;21248;-47
2022/09/05 07:37:40;;;;;;;45.65;29.07;;;;;;;15.33;100.00;100436.87;1693647;82;21077;-50
2022/09/05 07:40:16;;;;;;;65.00;45.48;;;;;;;15.40;100.00;100446.41;1697113;82;21032;-50
2022/09/05 07:42:55;;;;;;;72.32;52.83;;;;;;;15.41;100.00;100444.09;1697821;82;21456;-48
2022/09/05 07:45:26;;;;;;;93.17;66.75;;;;;;;15.38;100.00;100442.45;1695786;82;21127;-50
2022/09/05 07:48:05;;;;;;;113.08;79.55;;;;;;;15.29;100.00;100445.69;1698239;82;21160;-48
2022/09/05 07:50:38;;;;;;;117.75;84.47;;;;;;;15.18;100.00;100451.30;1692953;82;21094;-49
2022/09/05 07:53:04;;;;;;;109.10;76.53;;;;;;;15.02;100.00;100451.29;1691389;82;21101;-51
2022/09/05 07:55:35;;;;;;;115.97;80.65;;;;;;;14.89;100.00;100445.66;1696980;82;21504;-48
2022/09/05 07:58:06;;;;;;;113.77;76.85;;;;;;;14.78;100.00;100448.09;1694974;82;21056;-48
2022/09/05 08:00:33;;;;;;;112.90;81.30;;;;;;;14.66;100.00;100447.39;1697138;82;21816;-48
2022/09/05 08:03:13;;;;;;;104.78;74.27;;;;;;;14.56;100.00;100438.88;1696530;81;21121;-50
2022/09/05 08:05:45;;;;;;;99.35;72.40;;;;;;;14.49;100.00;100440.17;1696715;81;21496;-48
2022/09/05 08:08:19;;;;;;;105.80;71.42;;;;;;;14.41;100.00;100456.44;1719204;81;20922;-50
2022/09/05 08:10:50;;;;;;;92.02;65.25;;;;;;;14.32;100.00;100472.18;1721534;81;20969;-48
2022/09/05 08:13:20;;;;;;;88.63;60.43;;;;;;;14.23;100.00;100479.42;1718122;81;21430;-48
2022/09/05 08:15:50;;;;;;;84.20;56.23;;;;;;;14.11;100.00;100481.43;1712799;81;20926;-48
2022/09/05 08:18:29;;;;;;;82.53;54.18;;;;;;;13.95;100.00;100470.98;1713234;81;21001;-50
2022/09/05 08:21:15;;;;;;;75.65;52.58;;;;;;;13.81;100.00;100439.19;1722543;81;20918;-49
2022/09/05 08:24:28;;;;;;;75.45;51.33;;;;;;;13.77;100.00;100441.67;1718439;81;20967;-48
2022/09/05 08:27:24;;;;;;;83.35;54.10;;;;;;;13.76;100.00;100426.38;1715898;81;21060;-47
2022/09/05 08:30:06;;;;;;;68.17;46.02;;;;;;;13.80;100.00;100427.09;1716862;81;20950;-50
2022/09/05 08:32:47;;;;;;;72.82;50.83;;;;;;;13.82;100.00;100418.42;1716710;81;20926;-52
2022/09/05 08:35:23;;;;;;;71.02;49.10;;;;;;;13.87;100.00;100413.64;1714013;81;20934;-49
2022/09/05 08:37:50;;;;;;;70.47;51.53;;;;;;;13.89;100.00;100412.61;1717090;81;20995;-53
2022/09/05 08:40:37;;;;;;;74.22;51.95;;;;;;;13.90;100.00;100414.38;1696476;83;21687;-47
2022/09/05 08:43:35;;;;;;;80.50;56.68;;;;;;;13.88;100.00;100413.56;1721339;81;20922;-49
2022/09/05 08:46:27;;;;;;;70.35;47.00;;;;;;;13.87;100.00;100408.22;1717692;81;20989;-47
2022/09/05 08:49:27;;;;;;;68.62;45.70;;;;;;;13.87;100.00;100408.22;1719274;81;21536;-46
2022/09/05 08:52:19;;;;;;;62.30;39.78;;;;;;;13.91;100.00;100406.66;1713480;81;21116;-49
2022/09/05 08:55:12;;;;;;;57.17;39.08;;;;;;;14.12;100.00;100405.15;1714014;81;21032;-50
2022/09/05 08:57:58;;;;;;;53.05;37.10;;;;;;;14.12;100.00;100405.15;1720102;81;21085;-50
2022/09/05 09:00:25;;;;;;;45.28;33.00;;;;;;;14.26;100.00;100398.52;1713876;81;21570;-49
2022/09/05 09:03:18;;;;;;;46.05;31.23;;;;;;;14.42;100.00;100398.60;1719132;81;21108;-48
2022/09/05 09:06:15;;;;;;;47.70;31.95;;;;;;;14.54;100.00;100397.48;1706518;81;21119;-49
2022/09/05 09:09:02;;;;;;;51.42;32.98;;;;;;;14.67;100.00;100397.67;1710707;81;21212;-47
2022/09/05 09:11:37;;;;;;;42.00;25.82;;;;;;;14.81;100.00;100396.89;1712201;81;21171;-52
2022/09/05 09:14:25;;;;;;;30.23;20.70;;;;;;;14.93;100.00;100390.33;1714828;81;21029;-48
2022/09/05 09:17:00;;;;;;;28.70;17.25;;;;;;;15.09;100.00;100393.92;1626862;86;21102;-49
2022/09/05 09:20:08;;;;;;;24.20;16.20;;;;;;;15.27;100.00;100395.19;1670296;84;21156;-52
2022/09/05 09:22:47;;;;;;;19.17;13.13;;;;;;;15.45;100.00;100391.42;1601254;87;21449;-54
2022/09/05 09:25:21;;;;;;;23.70;15.35;;;;;;;15.63;100.00;100389.03;1601343;87;21168;-52
2022/09/05 09:28:28;;;;;;;18.60;14.75;;;;;;;15.80;100.00;100388.03;1633459;84;28611;-49
2022/09/05 09:31:12;;;;;;;19.50;15.10;;;;;;;15.90;100.00;100377.02;1663640;84;21128;-53
2022/09/05 09:34:19;;;;;;;21.25;12.88;;;;;;;16.02;100.00;100377.61;1662245;84;21607;-51
2022/09/05 09:37:03;;;;;;;12.47;8.68;;;;;;;16.11;100.00;100378.89;1663615;84;21157;-51
2022/09/05 09:40:08;;;;;;;11.12;8.05;;;;;;;16.21;100.00;100370.58;1664696;84;21116;-51
2022/09/05 09:43:04;;;;;;;13.40;8.95;;;;;;;16.32;100.00;100361.29;1664983;84;21156;-51
2022/09/05 09:46:14;;;;;;;5.70;3.20;;;;;;;16.49;100.00;100362.47;1663288;84;21151;-51
2022/09/05 09:49:06;;;;;;;6.10;3.70;;;;;;;16.64;100.00;100355.21;1700276;81;21020;-51
2022/09/05 09:51:57;;;;;;;3.70;3.30;;;;;;;16.79;100.00;100350.62;1720888;81;21101;-51
2022/09/05 09:54:58;;;;;;;11.48;5.12;;;;;;;16.89;100.00;100351.30;1716775;81;21081;-47
2022/09/05 09:57:57;;;;;;;7.62;4.90;;;;;;;16.97;100.00;100352.16;1713005;81;21592;-47
2022/09/05 10:00:24;;;;;;;9.50;6.15;;;;;;;17.07;100.00;100349.23;1717172;81;21164;-48
2022/09/05 10:03:14;;;;;;;9.03;7.35;;;;;;;17.10;100.00;100349.02;1714438;81;21165;-47
2022/09/05 10:05:56;;;;;;;8.78;7.00;;;;;;;17.08;100.00;100354.19;1698531;82;21174;-47
2022/09/05 10:09:02;;;;;;;7.42;6.65;;;;;;;17.02;100.00;100349.52;1698076;82;21096;-46
2022/09/05 10:12:02;;;;;;;9.80;6.67;;;;;;;16.98;100.00;100345.76;1702815;82;21900;-47
2022/09/05 10:15:13;;;;;;;13.15;7.50;;;;;;;16.97;100.00;100343.52;1700774;82;21473;-47
2022/09/05 10:17:53;;;;;;;13.08;8.28;;;;;;;16.95;100.00;100343.23;1623715;84;21068;-47
2022/09/05 10:20:50;;;;;;;9.98;6.17;;;;;;;16.94;100.00;100328.75;1696796;82;21154;-47
2022/09/05 10:24:08;;;;;;;9.88;5.40;;;;;;;16.94;100.00;100338.75;1701883;82;21064;-47
2022/09/05 10:27:13;;;;;;;4.60;2.67;;;;;;;16.94;100.00;100337.39;1696120;82;21276;-47
2022/09/05 10:30:16;;;;;;;6.78;3.15;;;;;;;16.90;100.00;100333.14;1699444;82;21492;-47
2022/09/05 10:33:11;;;;;;;5.42;3.55;;;;;;;16.88;100.00;100328.29;1700322;82;21748;-47
2022/09/05 10:35:50;;;;;;;6.55;3.27;;;;;;;16.86;100.00;100330.22;1698383;82;20962;-47
2022/09/05 10:38:39;;;;;;;5.40;3.45;;;;;;;16.88;100.00;100328.29;1699292;82;21077;-47
2022/09/05 10:41:12;;;;;;;3.55;1.47;;;;;;;16.95;100.00;100320.11;1673349;82;21114;-48
2022/09/05 10:43:49;;;;;;;1.52;0.70;;;;;;;17.03;100.00;100315.91;1701417;82;22493;-47
2022/09/05 10:46:27;;;;;;;3.08;1.20;;;;;;;17.15;100.00;100320.17;1700488;82;21710;-47
2022/09/05 10:48:58;;;;;;;1.95;0.90;;;;;;;17.22;100.00;100319.66;1698915;82;21645;-48
2022/09/05 10:51:34;;;;;;;2.05;1.15;;;;;;;17.24;100.00;100316.35;1701394;82;21102;-48
2022/09/05 10:54:30;;;;;;;2.40;1.17;;;;;;;17.29;100.00;100318.75;1699865;82;21117;-47
2022/09/05 10:57:08;;;;;;;1.98;1.10;;;;;;;17.34;100.00;100315.25;1637349;82;21402;-48
2022/09/05 10:59:46;;;;;;;4.95;1.22;;;;;;;17.43;100.00;100302.39;1697696;82;21085;-48
2022/09/05 11:02:24;;;;;;;2.40;1.35;;;;;;;17.56;100.00;100302.41;1701666;82;21932;-48
2022/09/05 11:05:14;;;;;;;2.25;1.07;;;;;;;17.64;100.00;100300.06;1626833;85;21466;-47
2022/09/05 11:07:53;;;;;;;1.92;1.00;;;;;;;17.69;100.00;100299.28;1673416;84;21808;-48
2022/09/05 11:10:37;;;;;;;3.75;1.20;;;;;;;17.71;100.00;100295.94;1669054;84;20985;-48
2022/09/05 11:13:38;;;;;;;3.52;1.90;;;;;;;17.70;100.00;100296.91;1666783;84;20946;-47
2022/09/05 11:16:36;;;;;;;2.25;2.05;;;;;;;17.70;100.00;100290.11;1664586;84;21093;-47
2022/09/05 11:19:07;;;;;;;5.65;1.85;;;;;;;17.65;100.00;100283.63;1667009;84;21425;-48
2022/09/05 11:22:03;;;;;;;3.08;1.67;;;;;;;17.56;100.00;100282.87;1666824;84;21421;-48
2022/09/05 11:24:44;;;;;;;5.20;1.80;;;;;;;17.53;100.00;100279.47;1668264;84;21045;-48
2022/09/05 11:27:35;;;;;;;3.10;1.92;;;;;;;17.59;100.00;100277.22;1668615;84;20922;-48
2022/09/05 11:30:12;;;;;;;2.83;2.52;;;;;;;17.71;100.00;100276.88;1669813;84;21081;-49
2022/09/05 11:32:56;;;;;;;2.60;2.40;;;;;;;17.84;100.00;100278.28;1641520;84;21751;-48
2022/09/05 11:35:28;;;;;;;8.00;2.72;;;;;;;17.92;100.00;100267.72;1669385;84;21781;-48
2022/09/05 11:38:13;;;;;;;3.33;1.95;;;;;;;18.00;100.00;100277.09;1666171;84;20977;-48
2022/09/05 11:41:12;;;;;;;3.05;1.92;;;;;;;18.03;100.00;100282.83;1669277;84;20926;-48
2022/09/05 11:44:05;;;;;;;5.20;2.50;;;;;;;18.05;100.00;100284.92;1666424;84;21473;-49
2022/09/05 11:46:59;;;;;;;5.15;2.90;;;;;;;17.98;100.00;100289.06;1668508;84;21112;-48
2022/09/05 11:50:09;;;;;;;8.35;2.40;;;;;;;17.80;100.00;100291.70;1665881;84;21092;-48
2022/09/05 11:52:58;;;;;;;7.65;3.02;;;;;;;17.55;100.00;100289.77;1664643;84;21105;-48
2022/09/05 11:55:36;;;;;;;5.42;3.62;;;;;;;17.29;100.00;100293.78;1665184;84;21093;-48
2022/09/05 11:58:42;;;;;;;7.97;2.22;;;;;;;17.15;100.00;100295.69;1664140;84;21504;-48
2022/09/05 12:01:19;;;;;;;7.85;2.98;;;;;;;16.92;100.00;100294.50;1660261;84;21121;-48
2022/09/05 12:04:18;;;;;;;5.78;3.60;;;;;;;16.63;100.00;100290.95;1667903;84;21065;-49
2022/09/05 12:07:12;;;;;;;8.68;3.45;;;;;;;16.47;100.00;100292.88;1683475;83;21353;-49
2022/09/05 12:10:12;;;;;;;3.02;2.12;;;;;;;16.38;100.00;100286.19;1667683;83;21037;-49
2022/09/05 12:13:01;;;;;;;10.03;2.65;;;;;;;16.37;100.00;100288.99;1682048;83;21157;-49
2022/09/05 12:15:32;;;;;;;3.75;2.22;;;;;;;16.36;100.00;100285.40;1671660;83;21124;-49
2022/09/05 12:18:18;;;;;;;3.72;2.27;;;;;;;16.45;100.00;100280.73;1613634;87;21046;-49
2022/09/05 12:21:22;;;;;;;5.45;1.60;;;;;;;16.55;100.00;100272.39;1632444;85;21145;-48
2022/09/05 12:24:02;;;;;;;3.55;1.25;;;;;;;16.70;100.00;100273.75;1634138;85;22591;-49
2022/09/05 12:26:49;;;;;;;2.37;2.17;;;;;;;16.83;100.00;100267.91;1628623;85;21576;-49
2022/09/05 12:29:24;;;;;;;4.50;1.90;;;;;;;16.93;100.00;100263.59;1633445;85;21050;-49
2022/09/05 12:31:58;;;;;;;4.22;2.45;;;;;;;17.05;100.00;100261.91;1634421;85;21175;-48
2022/09/05 12:34:52;;;;;;;4.67;2.10;;;;;;;17.14;100.00;100260.81;1635584;85;21641;-49
2022/09/05 12:37:38;;;;;;;2.40;2.02;;;;;;;17.22;100.00;100259.80;1638153;85;21458;-49
2022/09/05 12:40:14;;;;;;;5.12;3.08;;;;;;;17.27;100.00;100264.44;1633938;85;21874;-48
2022/09/05 12:42:53;;;;;;;3.75;2.45;;;;;;;17.25;100.00;100258.25;1607291;85;21094;-48
2022/09/05 12:45:39;;;;;;;5.03;2.05;;;;;;;17.23;100.00;100257.47;1636523;85;21113;-49
2022/09/05 12:48:32;;;;;;;4.37;2.33;;;;;;;17.24;100.00;100249.70;1633262;85;21165;-48
2022/09/05 12:51:16;;;;;;;4.17;2.65;;;;;;;17.20;100.00;100254.95;1638012;85;21588;-48